Home > Products > Valid Products > FWO

000
SHUS65 KGJT 302017
FWOGJT

DAILY FIRE WEATHER OBSERVATION
NATIONAL WEATHER SERVICE GRAND JUNCTION CO
212 PM MDT TUE SEP 30 2014

STATE OF THE WEATHER (W)               3
DRY BULB TEMPERATURE                   60   DEGREES FAHRENHEIT
RELATIVE HUMIDITY (RH)                 49   PERCENT
LIGHTNING ACTIVITY LEVEL
  (LAL - MIDNIGHT TO 2 PM)             2
WIND DIRECTION                         C    DEGREES (C IF CALM)
WIND SPEED                             0    MPH
MAX TEMP (2 PM - 2 PM)                 60   DEGREES FAHRENHEIT
MIN TEMP (2 PM - 2 PM)                 43   DEGREES FAHRENHEIT
MAX RH (2 PM - 2 PM)                   93   PERCENT
MIN RH (2 PM - 2 PM)                   49   PERCENT
PCPN DURATION                          1.9  HOURS
PCPN AMT (2 PM - 2 PM)                 0.01 INCHES
LAL (2 PM - 2 PM)                      3

$$

METAR KGJT 301953Z 00000KT 10SM BKN100 16/05 A2996 RMK AO2
      SLP112 T01560050





000
SHUS65 KGJT 302017
FWOGJT

DAILY FIRE WEATHER OBSERVATION
NATIONAL WEATHER SERVICE GRAND JUNCTION CO
212 PM MDT TUE SEP 30 2014

STATE OF THE WEATHER (W)               3
DRY BULB TEMPERATURE                   60   DEGREES FAHRENHEIT
RELATIVE HUMIDITY (RH)                 49   PERCENT
LIGHTNING ACTIVITY LEVEL
  (LAL - MIDNIGHT TO 2 PM)             2
WIND DIRECTION                         C    DEGREES (C IF CALM)
WIND SPEED                             0    MPH
MAX TEMP (2 PM - 2 PM)                 60   DEGREES FAHRENHEIT
MIN TEMP (2 PM - 2 PM)                 43   DEGREES FAHRENHEIT
MAX RH (2 PM - 2 PM)                   93   PERCENT
MIN RH (2 PM - 2 PM)                   49   PERCENT
PCPN DURATION                          1.9  HOURS
PCPN AMT (2 PM - 2 PM)                 0.01 INCHES
LAL (2 PM - 2 PM)                      3

$$

METAR KGJT 301953Z 00000KT 10SM BKN100 16/05 A2996 RMK AO2
      SLP112 T01560050




000
SHUS65 KGJT 292016
FWOGJT

DAILY FIRE WEATHER OBSERVATION
NATIONAL WEATHER SERVICE GRAND JUNCTION CO
212 PM MDT MON SEP 29 2014

STATE OF THE WEATHER (W)               3
DRY BULB TEMPERATURE                   57   DEGREES FAHRENHEIT
RELATIVE HUMIDITY (RH)                 74   PERCENT
LIGHTNING ACTIVITY LEVEL
  (LAL - MIDNIGHT TO 2 PM)             2
WIND DIRECTION                         270  DEGREES (C IF CALM)
WIND SPEED                             13   MPH
MAX TEMP (2 PM - 2 PM)                 67   DEGREES FAHRENHEIT
MIN TEMP (2 PM - 2 PM)                 46   DEGREES FAHRENHEIT
MAX RH (2 PM - 2 PM)                   100  PERCENT
MIN RH (2 PM - 2 PM)                   47   PERCENT
PCPN DURATION                          5.0  HOURS
PCPN AMT (2 PM - 2 PM)                 0.37 INCHES
LAL (2 PM - 2 PM)                      3

$$

METAR KGJT 291953Z 29011KT 10SM SCT065 OVC110 14/09 A2997 RMK
      AO2 RAE20 SLP116 P0001 T01390094





000
SHUS65 KGJT 282018
FWOGJT

DAILY FIRE WEATHER OBSERVATION
NATIONAL WEATHER SERVICE GRAND JUNCTION CO
212 PM MDT SUN SEP 28 2014

STATE OF THE WEATHER (W)               2
DRY BULB TEMPERATURE                   63   DEGREES FAHRENHEIT
RELATIVE HUMIDITY (RH)                 58   PERCENT
LIGHTNING ACTIVITY LEVEL
  (LAL - MIDNIGHT TO 2 PM)             2
WIND DIRECTION                         180  DEGREES (C IF CALM)
WIND SPEED                             17   MPH
MAX TEMP (2 PM - 2 PM)                 84   DEGREES FAHRENHEIT
MIN TEMP (2 PM - 2 PM)                 54   DEGREES FAHRENHEIT
MAX RH (2 PM - 2 PM)                   100  PERCENT
MIN RH (2 PM - 2 PM)                   33   PERCENT
PCPN DURATION                          8.0  HOURS
PCPN AMT (2 PM - 2 PM)                 0.6  INCHES
LAL (2 PM - 2 PM)                      5

$$

METAR KGJT 281953Z 16015KT 10SM FEW120 17/09 A3003 RMK AO2
      SLP124 T01720089




000
SHUS65 KGJT 282018
FWOGJT

DAILY FIRE WEATHER OBSERVATION
NATIONAL WEATHER SERVICE GRAND JUNCTION CO
212 PM MDT SUN SEP 28 2014

STATE OF THE WEATHER (W)               2
DRY BULB TEMPERATURE                   63   DEGREES FAHRENHEIT
RELATIVE HUMIDITY (RH)                 58   PERCENT
LIGHTNING ACTIVITY LEVEL
  (LAL - MIDNIGHT TO 2 PM)             2
WIND DIRECTION                         180  DEGREES (C IF CALM)
WIND SPEED                             17   MPH
MAX TEMP (2 PM - 2 PM)                 84   DEGREES FAHRENHEIT
MIN TEMP (2 PM - 2 PM)                 54   DEGREES FAHRENHEIT
MAX RH (2 PM - 2 PM)                   100  PERCENT
MIN RH (2 PM - 2 PM)                   33   PERCENT
PCPN DURATION                          8.0  HOURS
PCPN AMT (2 PM - 2 PM)                 0.6  INCHES
LAL (2 PM - 2 PM)                      5

$$

METAR KGJT 281953Z 16015KT 10SM FEW120 17/09 A3003 RMK AO2
      SLP124 T01720089





    US Dept of Commerce
    National Oceanic and Atmospheric Administration
    National Weather Service
    1325 East West Highway
    Silver Spring, MD 20910
    Page Author: NWS Internet Services Team
Disclaimer
Information Quality
Credits
Glossary
Privacy Policy
Freedom of Information Act (FOIA)
About Us
Career Opportunities